sensor_id;sensor_type;location;lat;lon;timestamp;temperature;humidity
23544;DHT22;11950;51.230;4.012;2024-01-25T00:00:34;10.60;99.90
23544;DHT22;11950;51.230;4.012;2024-01-25T00:03:00;10.60;99.90
23544;DHT22;11950;51.230;4.012;2024-01-25T00:05:26;10.60;99.90
23544;DHT22;11950;51.230;4.012;2024-01-25T00:07:53;10.50;99.90
23544;DHT22;11950;51.230;4.012;2024-01-25T00:10:19;10.50;99.90
23544;DHT22;11950;51.230;4.012;2024-01-25T00:12:45;10.40;99.90
23544;DHT22;11950;51.230;4.012;2024-01-25T00:15:12;10.40;99.90
23544;DHT22;11950;51.230;4.012;2024-01-25T00:17:39;10.30;99.90
23544;DHT22;11950;51.230;4.012;2024-01-25T00:20:05;10.30;99.90
23544;DHT22;11950;51.230;4.012;2024-01-25T00:22:32;10.30;99.90
23544;DHT22;11950;51.230;4.012;2024-01-25T00:24:58;10.20;99.90
23544;DHT22;11950;51.230;4.012;2024-01-25T00:27:25;10.20;99.90
23544;DHT22;11950;51.230;4.012;2024-01-25T00:29:51;10.10;99.90
23544;DHT22;11950;51.230;4.012;2024-01-25T00:32:18;10.10;99.90
23544;DHT22;11950;51.230;4.012;2024-01-25T00:34:44;10.10;99.90
23544;DHT22;11950;51.230;4.012;2024-01-25T00:37:11;10.00;99.90
23544;DHT22;11950;51.230;4.012;2024-01-25T00:39:37;10.00;99.90
23544;DHT22;11950;51.230;4.012;2024-01-25T00:42:06;10.00;99.90
23544;DHT22;11950;51.230;4.012;2024-01-25T00:44:33;9.90;99.90
23544;DHT22;11950;51.230;4.012;2024-01-25T00:47:00;9.80;99.90
23544;DHT22;11950;51.230;4.012;2024-01-25T00:49:26;9.70;99.90
23544;DHT22;11950;51.230;4.012;2024-01-25T00:51:58;9.70;99.90
23544;DHT22;11950;51.230;4.012;2024-01-25T00:54:26;9.70;99.90
23544;DHT22;11950;51.230;4.012;2024-01-25T00:56:52;9.60;99.90
23544;DHT22;11950;51.230;4.012;2024-01-25T00:59:19;9.60;99.90
23544;DHT22;11950;51.230;4.012;2024-01-25T01:01:47;9.50;99.90
23544;DHT22;11950;51.230;4.012;2024-01-25T01:04:14;9.50;99.90
23544;DHT22;11950;51.230;4.012;2024-01-25T01:06:41;9.50;99.90
23544;DHT22;11950;51.230;4.012;2024-01-25T01:09:07;9.40;99.90
23544;DHT22;11950;51.230;4.012;2024-01-25T01:11:34;9.30;99.90
23544;DHT22;11950;51.230;4.012;2024-01-25T01:14:00;9.30;99.90
23544;DHT22;11950;51.230;4.012;2024-01-25T01:16:26;9.20;99.90
23544;DHT22;11950;51.230;4.012;2024-01-25T01:18:52;9.20;99.90
23544;DHT22;11950;51.230;4.012;2024-01-25T01:21:19;9.20;99.90
23544;DHT22;11950;51.230;4.012;2024-01-25T01:23:47;9.20;99.90
23544;DHT22;11950;51.230;4.012;2024-01-25T01:26:13;9.10;99.90
23544;DHT22;11950;51.230;4.012;2024-01-25T01:28:39;9.10;99.90
23544;DHT22;11950;51.230;4.012;2024-01-25T01:31:05;9.10;99.90
23544;DHT22;11950;51.230;4.012;2024-01-25T01:33:32;9.00;99.90
23544;DHT22;11950;51.230;4.012;2024-01-25T01:35:58;8.90;99.90
23544;DHT22;11950;51.230;4.012;2024-01-25T01:38:24;8.90;99.90
23544;DHT22;11950;51.230;4.012;2024-01-25T01:40:50;8.80;99.90
23544;DHT22;11950;51.230;4.012;2024-01-25T01:43:20;8.80;99.90
23544;DHT22;11950;51.230;4.012;2024-01-25T01:45:46;8.70;99.90
23544;DHT22;11950;51.230;4.012;2024-01-25T01:48:12;8.70;99.90
23544;DHT22;11950;51.230;4.012;2024-01-25T01:50:39;8.70;99.90
23544;DHT22;11950;51.230;4.012;2024-01-25T01:53:06;8.60;99.90
23544;DHT22;11950;51.230;4.012;2024-01-25T01:55:32;8.60;99.90
23544;DHT22;11950;51.230;4.012;2024-01-25T01:57:59;8.50;99.90
23544;DHT22;11950;51.230;4.012;2024-01-25T02:00:26;8.50;99.90
23544;DHT22;11950;51.230;4.012;2024-01-25T02:02:53;8.50;99.90
23544;DHT22;11950;51.230;4.012;2024-01-25T02:05:19;8.50;99.90
23544;DHT22;11950;51.230;4.012;2024-01-25T02:07:46;8.40;99.90
23544;DHT22;11950;51.230;4.012;2024-01-25T02:10:12;8.40;99.90
23544;DHT22;11950;51.230;4.012;2024-01-25T02:12:38;8.40;99.90
23544;DHT22;11950;51.230;4.012;2024-01-25T02:15:04;8.40;99.90
23544;DHT22;11950;51.230;4.012;2024-01-25T02:17:31;8.30;99.90
23544;DHT22;11950;51.230;4.012;2024-01-25T02:19:57;8.30;99.90
23544;DHT22;11950;51.230;4.012;2024-01-25T02:22:23;8.30;99.90
23544;DHT22;11950;51.230;4.012;2024-01-25T02:24:50;8.30;99.90
23544;DHT22;11950;51.230;4.012;2024-01-25T02:27:16;8.30;99.90
23544;DHT22;11950;51.230;4.012;2024-01-25T02:29:42;8.20;99.90
23544;DHT22;11950;51.230;4.012;2024-01-25T02:32:08;8.10;99.90
23544;DHT22;11950;51.230;4.012;2024-01-25T02:34:35;8.10;99.90
23544;DHT22;11950;51.230;4.012;2024-01-25T02:37:01;8.00;99.90
23544;DHT22;11950;51.230;4.012;2024-01-25T02:39:28;8.00;99.90
23544;DHT22;11950;51.230;4.012;2024-01-25T02:41:54;7.90;99.90
23544;DHT22;11950;51.230;4.012;2024-01-25T02:44:21;7.80;99.90
23544;DHT22;11950;51.230;4.012;2024-01-25T02:46:47;7.70;99.90
23544;DHT22;11950;51.230;4.012;2024-01-25T02:49:13;7.80;99.90
23544;DHT22;11950;51.230;4.012;2024-01-25T02:51:39;7.70;99.90
23544;DHT22;11950;51.230;4.012;2024-01-25T02:54:06;7.70;99.90
23544;DHT22;11950;51.230;4.012;2024-01-25T02:56:32;7.60;99.90
23544;DHT22;11950;51.230;4.012;2024-01-25T02:59:03;7.50;99.90
23544;DHT22;11950;51.230;4.012;2024-01-25T03:01:38;7.50;99.90
23544;DHT22;11950;51.230;4.012;2024-01-25T03:04:04;7.40;99.90
23544;DHT22;11950;51.230;4.012;2024-01-25T03:06:30;7.40;99.90
23544;DHT22;11950;51.230;4.012;2024-01-25T03:08:57;7.40;99.90
23544;DHT22;11950;51.230;4.012;2024-01-25T03:11:23;7.40;99.90
23544;DHT22;11950;51.230;4.012;2024-01-25T03:13:49;7.30;99.90
23544;DHT22;11950;51.230;4.012;2024-01-25T03:16:15;7.30;99.90
23544;DHT22;11950;51.230;4.012;2024-01-25T03:18:41;7.30;99.90
23544;DHT22;11950;51.230;4.012;2024-01-25T03:21:08;7.20;99.90
23544;DHT22;11950;51.230;4.012;2024-01-25T03:23:34;7.20;99.90
23544;DHT22;11950;51.230;4.012;2024-01-25T03:26:02;7.20;99.90
23544;DHT22;11950;51.230;4.012;2024-01-25T03:28:28;7.20;99.90
23544;DHT22;11950;51.230;4.012;2024-01-25T03:30:54;7.10;99.90
23544;DHT22;11950;51.230;4.012;2024-01-25T03:33:21;7.10;99.90
23544;DHT22;11950;51.230;4.012;2024-01-25T03:35:48;7.10;99.90
23544;DHT22;11950;51.230;4.012;2024-01-25T03:38:14;7.00;99.90
23544;DHT22;11950;51.230;4.012;2024-01-25T03:40:40;7.00;99.90
23544;DHT22;11950;51.230;4.012;2024-01-25T03:43:06;7.00;99.90
23544;DHT22;11950;51.230;4.012;2024-01-25T03:45:32;6.90;99.90
23544;DHT22;11950;51.230;4.012;2024-01-25T03:47:59;6.80;99.90
23544;DHT22;11950;51.230;4.012;2024-01-25T03:50:26;6.80;99.90
23544;DHT22;11950;51.230;4.012;2024-01-25T03:52:52;6.80;99.90
23544;DHT22;11950;51.230;4.012;2024-01-25T03:55:19;6.80;99.90
23544;DHT22;11950;51.230;4.012;2024-01-25T03:57:45;6.80;99.90
23544;DHT22;11950;51.230;4.012;2024-01-25T04:00:12;6.70;99.90
23544;DHT22;11950;51.230;4.012;2024-01-25T04:02:38;6.80;99.90
23544;DHT22;11950;51.230;4.012;2024-01-25T04:05:05;6.70;99.90
23544;DHT22;11950;51.230;4.012;2024-01-25T04:07:31;6.70;99.90
23544;DHT22;11950;51.230;4.012;2024-01-25T04:09:57;6.70;99.90
23544;DHT22;11950;51.230;4.012;2024-01-25T04:12:23;6.70;99.90
23544;DHT22;11950;51.230;4.012;2024-01-25T04:14:51;6.60;99.90
23544;DHT22;11950;51.230;4.012;2024-01-25T04:17:17;6.60;99.90
23544;DHT22;11950;51.230;4.012;2024-01-25T04:19:43;6.60;99.90
23544;DHT22;11950;51.230;4.012;2024-01-25T04:22:09;6.60;99.90
23544;DHT22;11950;51.230;4.012;2024-01-25T04:24:36;6.60;99.90
23544;DHT22;11950;51.230;4.012;2024-01-25T04:27:03;6.60;99.90
23544;DHT22;11950;51.230;4.012;2024-01-25T04:29:30;6.60;99.90
23544;DHT22;11950;51.230;4.012;2024-01-25T04:31:56;6.60;99.90
23544;DHT22;11950;51.230;4.012;2024-01-25T04:34:23;6.70;99.90
23544;DHT22;11950;51.230;4.012;2024-01-25T04:36:49;6.60;99.90
23544;DHT22;11950;51.230;4.012;2024-01-25T04:39:15;6.70;99.90
23544;DHT22;11950;51.230;4.012;2024-01-25T04:41:41;6.60;99.90
23544;DHT22;11950;51.230;4.012;2024-01-25T04:44:08;6.60;99.90
23544;DHT22;11950;51.230;4.012;2024-01-25T04:46:34;6.50;99.90
23544;DHT22;11950;51.230;4.012;2024-01-25T04:49:03;6.40;99.90
23544;DHT22;11950;51.230;4.012;2024-01-25T04:51:29;6.40;99.90
23544;DHT22;11950;51.230;4.012;2024-01-25T04:53:55;6.40;99.90
23544;DHT22;11950;51.230;4.012;2024-01-25T04:56:21;6.30;99.90
23544;DHT22;11950;51.230;4.012;2024-01-25T04:58:48;6.30;99.90
23544;DHT22;11950;51.230;4.012;2024-01-25T05:01:14;6.30;99.90
23544;DHT22;11950;51.230;4.012;2024-01-25T05:03:40;6.20;99.90
23544;DHT22;11950;51.230;4.012;2024-01-25T05:06:06;6.30;99.90
23544;DHT22;11950;51.230;4.012;2024-01-25T05:08:33;6.20;99.90
23544;DHT22;11950;51.230;4.012;2024-01-25T05:10:59;6.10;99.90
23544;DHT22;11950;51.230;4.012;2024-01-25T05:13:26;6.10;99.90
23544;DHT22;11950;51.230;4.012;2024-01-25T05:15:52;6.10;99.90
23544;DHT22;11950;51.230;4.012;2024-01-25T05:18:18;6.10;99.90
23544;DHT22;11950;51.230;4.012;2024-01-25T05:20:45;6.10;99.90
23544;DHT22;11950;51.230;4.012;2024-01-25T05:23:11;6.00;99.90
23544;DHT22;11950;51.230;4.012;2024-01-25T05:25:37;6.00;99.90
23544;DHT22;11950;51.230;4.012;2024-01-25T05:28:03;5.90;99.90
23544;DHT22;11950;51.230;4.012;2024-01-25T05:30:30;5.90;99.90
23544;DHT22;11950;51.230;4.012;2024-01-25T05:32:56;5.90;99.90
23544;DHT22;11950;51.230;4.012;2024-01-25T05:35:22;5.90;99.90
23544;DHT22;11950;51.230;4.012;2024-01-25T05:37:49;5.90;99.90
23544;DHT22;11950;51.230;4.012;2024-01-25T05:40:16;5.90;99.90
23544;DHT22;11950;51.230;4.012;2024-01-25T05:42:42;5.90;99.90
23544;DHT22;11950;51.230;4.012;2024-01-25T05:45:08;5.90;99.90
23544;DHT22;11950;51.230;4.012;2024-01-25T05:47:35;5.80;99.90
23544;DHT22;11950;51.230;4.012;2024-01-25T05:50:01;5.70;99.90
23544;DHT22;11950;51.230;4.012;2024-01-25T05:52:28;5.70;99.90
23544;DHT22;11950;51.230;4.012;2024-01-25T05:54:55;5.80;99.90
23544;DHT22;11950;51.230;4.012;2024-01-25T05:57:21;5.80;99.90
23544;DHT22;11950;51.230;4.012;2024-01-25T05:59:47;5.80;99.90
23544;DHT22;11950;51.230;4.012;2024-01-25T06:02:14;5.80;99.90
23544;DHT22;11950;51.230;4.012;2024-01-25T06:04:40;5.80;99.90
23544;DHT22;11950;51.230;4.012;2024-01-25T06:07:06;5.80;99.90
23544;DHT22;11950;51.230;4.012;2024-01-25T06:09:32;5.80;99.90
23544;DHT22;11950;51.230;4.012;2024-01-25T06:11:58;5.80;99.90
23544;DHT22;11950;51.230;4.012;2024-01-25T06:14:25;5.80;99.90
23544;DHT22;11950;51.230;4.012;2024-01-25T06:16:51;5.80;99.90
23544;DHT22;11950;51.230;4.012;2024-01-25T06:19:17;5.90;99.90
23544;DHT22;11950;51.230;4.012;2024-01-25T06:21:44;5.90;99.90
23544;DHT22;11950;51.230;4.012;2024-01-25T06:24:10;5.90;99.90
23544;DHT22;11950;51.230;4.012;2024-01-25T06:26:36;5.90;99.90
23544;DHT22;11950;51.230;4.012;2024-01-25T06:29:02;5.90;99.90
23544;DHT22;11950;51.230;4.012;2024-01-25T06:31:29;6.00;99.90
23544;DHT22;11950;51.230;4.012;2024-01-25T06:33:55;5.90;99.90
23544;DHT22;11950;51.230;4.012;2024-01-25T06:36:22;5.90;99.90
23544;DHT22;11950;51.230;4.012;2024-01-25T06:38:49;5.90;99.90
23544;DHT22;11950;51.230;4.012;2024-01-25T06:41:15;5.90;99.90
23544;DHT22;11950;51.230;4.012;2024-01-25T06:43:42;5.90;99.90
23544;DHT22;11950;51.230;4.012;2024-01-25T06:46:08;6.00;99.90
23544;DHT22;11950;51.230;4.012;2024-01-25T06:48:35;6.00;99.90
23544;DHT22;11950;51.230;4.012;2024-01-25T06:51:02;5.90;99.90
23544;DHT22;11950;51.230;4.012;2024-01-25T06:53:28;5.90;99.90
23544;DHT22;11950;51.230;4.012;2024-01-25T06:55:54;6.00;99.90
23544;DHT22;11950;51.230;4.012;2024-01-25T06:58:21;6.00;99.90
23544;DHT22;11950;51.230;4.012;2024-01-25T07:00:47;6.00;99.90
23544;DHT22;11950;51.230;4.012;2024-01-25T07:03:13;6.00;99.90
23544;DHT22;11950;51.230;4.012;2024-01-25T07:05:41;6.10;99.90
23544;DHT22;11950;51.230;4.012;2024-01-25T07:08:07;6.10;99.90
23544;DHT22;11950;51.230;4.012;2024-01-25T07:10:39;6.10;99.90
23544;DHT22;11950;51.230;4.012;2024-01-25T07:13:05;6.10;99.90
23544;DHT22;11950;51.230;4.012;2024-01-25T07:15:32;6.10;99.90
23544;DHT22;11950;51.230;4.012;2024-01-25T07:17:58;6.10;99.90
23544;DHT22;11950;51.230;4.012;2024-01-25T07:20:25;6.10;99.90
23544;DHT22;11950;51.230;4.012;2024-01-25T07:22:51;6.20;99.90
23544;DHT22;11950;51.230;4.012;2024-01-25T07:25:17;6.20;99.90
23544;DHT22;11950;51.230;4.012;2024-01-25T07:27:44;6.20;99.90
23544;DHT22;11950;51.230;4.012;2024-01-25T07:30:12;6.30;99.90
23544;DHT22;11950;51.230;4.012;2024-01-25T07:32:39;6.30;99.90
23544;DHT22;11950;51.230;4.012;2024-01-25T07:35:08;6.40;99.90
23544;DHT22;11950;51.230;4.012;2024-01-25T07:37:39;6.50;99.90
23544;DHT22;11950;51.230;4.012;2024-01-25T07:40:07;6.50;99.90
23544;DHT22;11950;51.230;4.012;2024-01-25T07:42:34;6.40;99.90
23544;DHT22;11950;51.230;4.012;2024-01-25T07:45:00;6.40;99.90
23544;DHT22;11950;51.230;4.012;2024-01-25T07:47:27;6.40;99.90
23544;DHT22;11950;51.230;4.012;2024-01-25T07:49:53;6.40;99.90
23544;DHT22;11950;51.230;4.012;2024-01-25T07:52:19;6.40;99.90
23544;DHT22;11950;51.230;4.012;2024-01-25T07:54:45;6.30;99.90
23544;DHT22;11950;51.230;4.012;2024-01-25T07:57:12;6.30;99.90
23544;DHT22;11950;51.230;4.012;2024-01-25T07:59:38;6.40;99.90
23544;DHT22;11950;51.230;4.012;2024-01-25T08:02:04;6.40;99.90
23544;DHT22;11950;51.230;4.012;2024-01-25T08:04:30;6.40;99.90
23544;DHT22;11950;51.230;4.012;2024-01-25T08:06:57;6.40;99.90
23544;DHT22;11950;51.230;4.012;2024-01-25T08:09:23;6.40;99.90
23544;DHT22;11950;51.230;4.012;2024-01-25T08:11:49;6.30;99.90
23544;DHT22;11950;51.230;4.012;2024-01-25T08:14:16;6.40;99.90
23544;DHT22;11950;51.230;4.012;2024-01-25T08:16:42;6.40;99.90
23544;DHT22;11950;51.230;4.012;2024-01-25T08:19:09;6.40;99.90
23544;DHT22;11950;51.230;4.012;2024-01-25T08:21:35;6.50;99.90
23544;DHT22;11950;51.230;4.012;2024-01-25T08:24:02;6.50;99.90
23544;DHT22;11950;51.230;4.012;2024-01-25T08:26:28;6.60;99.90
23544;DHT22;11950;51.230;4.012;2024-01-25T08:28:55;6.70;99.90
23544;DHT22;11950;51.230;4.012;2024-01-25T08:31:21;6.70;99.90
23544;DHT22;11950;51.230;4.012;2024-01-25T08:33:48;6.70;99.90
23544;DHT22;11950;51.230;4.012;2024-01-25T08:36:17;6.90;99.90
23544;DHT22;11950;51.230;4.012;2024-01-25T08:38:44;6.90;99.90
23544;DHT22;11950;51.230;4.012;2024-01-25T08:41:10;6.90;99.90
23544;DHT22;11950;51.230;4.012;2024-01-25T08:43:37;7.00;99.90
23544;DHT22;11950;51.230;4.012;2024-01-25T08:46:04;7.10;99.90
23544;DHT22;11950;51.230;4.012;2024-01-25T08:48:30;7.10;99.90
23544;DHT22;11950;51.230;4.012;2024-01-25T08:50:56;7.00;99.90
23544;DHT22;11950;51.230;4.012;2024-01-25T08:53:23;7.10;99.90
23544;DHT22;11950;51.230;4.012;2024-01-25T08:55:56;7.10;99.90
23544;DHT22;11950;51.230;4.012;2024-01-25T08:58:22;7.20;99.90
23544;DHT22;11950;51.230;4.012;2024-01-25T09:00:49;7.30;99.90
23544;DHT22;11950;51.230;4.012;2024-01-25T09:03:15;7.40;99.90
23544;DHT22;11950;51.230;4.012;2024-01-25T09:05:41;7.40;99.90
23544;DHT22;11950;51.230;4.012;2024-01-25T09:08:14;7.50;99.90
23544;DHT22;11950;51.230;4.012;2024-01-25T09:10:41;7.60;99.90
23544;DHT22;11950;51.230;4.012;2024-01-25T09:13:08;7.70;99.90
23544;DHT22;11950;51.230;4.012;2024-01-25T09:15:35;7.80;99.90
23544;DHT22;11950;51.230;4.012;2024-01-25T09:18:01;7.80;99.90
23544;DHT22;11950;51.230;4.012;2024-01-25T09:20:27;7.90;99.90
23544;DHT22;11950;51.230;4.012;2024-01-25T09:22:53;8.00;99.90
23544;DHT22;11950;51.230;4.012;2024-01-25T09:25:21;8.10;99.90
23544;DHT22;11950;51.230;4.012;2024-01-25T09:27:48;8.20;99.90
23544;DHT22;11950;51.230;4.012;2024-01-25T09:30:15;8.20;99.90
23544;DHT22;11950;51.230;4.012;2024-01-25T09:32:41;8.30;99.90
23544;DHT22;11950;51.230;4.012;2024-01-25T09:35:08;8.40;99.90
23544;DHT22;11950;51.230;4.012;2024-01-25T09:37:34;8.40;99.90
23544;DHT22;11950;51.230;4.012;2024-01-25T09:40:00;8.40;99.90
23544;DHT22;11950;51.230;4.012;2024-01-25T09:42:28;8.50;99.90
23544;DHT22;11950;51.230;4.012;2024-01-25T09:44:54;8.50;99.90
23544;DHT22;11950;51.230;4.012;2024-01-25T09:47:21;8.50;99.90
23544;DHT22;11950;51.230;4.012;2024-01-25T09:49:47;8.60;99.90
23544;DHT22;11950;51.230;4.012;2024-01-25T09:52:14;8.60;99.90
23544;DHT22;11950;51.230;4.012;2024-01-25T09:54:41;8.60;99.90
23544;DHT22;11950;51.230;4.012;2024-01-25T09:57:15;8.70;99.90
23544;DHT22;11950;51.230;4.012;2024-01-25T09:59:45;8.70;99.90
23544;DHT22;11950;51.230;4.012;2024-01-25T10:02:11;8.70;99.90
23544;DHT22;11950;51.230;4.012;2024-01-25T10:04:38;8.70;99.90
23544;DHT22;11950;51.230;4.012;2024-01-25T10:07:04;8.70;99.90
23544;DHT22;11950;51.230;4.012;2024-01-25T10:09:42;8.80;99.90
23544;DHT22;11950;51.230;4.012;2024-01-25T10:12:09;8.80;99.90
23544;DHT22;11950;51.230;4.012;2024-01-25T10:14:36;8.80;99.90
23544;DHT22;11950;51.230;4.012;2024-01-25T10:17:02;8.90;99.90
23544;DHT22;11950;51.230;4.012;2024-01-25T10:19:29;8.90;99.90
23544;DHT22;11950;51.230;4.012;2024-01-25T10:21:56;8.90;99.90
23544;DHT22;11950;51.230;4.012;2024-01-25T10:24:23;9.00;99.90
23544;DHT22;11950;51.230;4.012;2024-01-25T10:26:49;8.90;99.90
23544;DHT22;11950;51.230;4.012;2024-01-25T10:29:16;9.00;99.90
23544;DHT22;11950;51.230;4.012;2024-01-25T10:31:42;9.00;99.90
23544;DHT22;11950;51.230;4.012;2024-01-25T10:34:11;9.00;99.90
23544;DHT22;11950;51.230;4.012;2024-01-25T10:36:39;9.10;99.90
23544;DHT22;11950;51.230;4.012;2024-01-25T10:39:07;9.10;99.90
23544;DHT22;11950;51.230;4.012;2024-01-25T10:41:34;9.20;99.90
23544;DHT22;11950;51.230;4.012;2024-01-25T10:44:00;9.20;99.90
23544;DHT22;11950;51.230;4.012;2024-01-25T10:46:29;9.30;99.90
23544;DHT22;11950;51.230;4.012;2024-01-25T10:48:58;9.30;99.90
23544;DHT22;11950;51.230;4.012;2024-01-25T10:51:26;9.40;99.90
23544;DHT22;11950;51.230;4.012;2024-01-25T10:53:53;9.40;99.90
23544;DHT22;11950;51.230;4.012;2024-01-25T10:56:20;9.40;99.90
23544;DHT22;11950;51.230;4.012;2024-01-25T10:58:47;9.50;99.90
23544;DHT22;11950;51.230;4.012;2024-01-25T11:01:16;9.50;99.90
23544;DHT22;11950;51.230;4.012;2024-01-25T11:03:46;9.50;99.90
23544;DHT22;11950;51.230;4.012;2024-01-25T11:06:15;9.60;99.90
23544;DHT22;11950;51.230;4.012;2024-01-25T11:08:42;9.60;99.90
23544;DHT22;11950;51.230;4.012;2024-01-25T11:11:11;9.60;99.90
23544;DHT22;11950;51.230;4.012;2024-01-25T11:13:40;9.60;99.90
23544;DHT22;11950;51.230;4.012;2024-01-25T11:16:28;9.70;99.90
23544;DHT22;11950;51.230;4.012;2024-01-25T11:18:56;9.70;99.90
23544;DHT22;11950;51.230;4.012;2024-01-25T11:21:42;9.70;99.90
23544;DHT22;11950;51.230;4.012;2024-01-25T11:24:26;9.80;99.90
23544;DHT22;11950;51.230;4.012;2024-01-25T11:26:54;9.80;99.90
23544;DHT22;11950;51.230;4.012;2024-01-25T11:29:22;9.90;99.90
23544;DHT22;11950;51.230;4.012;2024-01-25T11:31:51;9.90;99.90
23544;DHT22;11950;51.230;4.012;2024-01-25T11:34:17;10.00;99.90
23544;DHT22;11950;51.230;4.012;2024-01-25T11:36:47;10.10;99.90
23544;DHT22;11950;51.230;4.012;2024-01-25T11:39:15;10.20;99.90
23544;DHT22;11950;51.230;4.012;2024-01-25T11:41:43;10.20;99.90
23544;DHT22;11950;51.230;4.012;2024-01-25T11:44:10;10.20;99.90
23544;DHT22;11950;51.230;4.012;2024-01-25T11:46:37;10.30;99.90
23544;DHT22;11950;51.230;4.012;2024-01-25T11:49:03;10.40;99.90
23544;DHT22;11950;51.230;4.012;2024-01-25T11:51:29;10.40;99.90
23544;DHT22;11950;51.230;4.012;2024-01-25T11:53:56;10.40;99.90
23544;DHT22;11950;51.230;4.012;2024-01-25T11:56:33;10.50;99.90
23544;DHT22;11950;51.230;4.012;2024-01-25T11:59:00;10.50;99.90
23544;DHT22;11950;51.230;4.012;2024-01-25T12:01:27;10.60;99.90
23544;DHT22;11950;51.230;4.012;2024-01-25T12:03:54;10.60;99.90
23544;DHT22;11950;51.230;4.012;2024-01-25T12:06:20;10.60;99.90
23544;DHT22;11950;51.230;4.012;2024-01-25T12:08:47;10.70;99.90
23544;DHT22;11950;51.230;4.012;2024-01-25T12:11:14;10.80;99.90
23544;DHT22;11950;51.230;4.012;2024-01-25T12:13:42;10.80;99.90
23544;DHT22;11950;51.230;4.012;2024-01-25T12:16:09;10.90;99.90
23544;DHT22;11950;51.230;4.012;2024-01-25T12:18:37;10.90;99.90
23544;DHT22;11950;51.230;4.012;2024-01-25T12:21:04;11.00;99.90
23544;DHT22;11950;51.230;4.012;2024-01-25T12:26:06;11.10;99.90
23544;DHT22;11950;51.230;4.012;2024-01-25T12:28:33;11.10;99.90
23544;DHT22;11950;51.230;4.012;2024-01-25T12:31:03;11.10;99.90
23544;DHT22;11950;51.230;4.012;2024-01-25T12:33:31;11.20;99.90
23544;DHT22;11950;51.230;4.012;2024-01-25T12:35:58;11.20;99.90
23544;DHT22;11950;51.230;4.012;2024-01-25T12:38:25;11.20;99.90
23544;DHT22;11950;51.230;4.012;2024-01-25T12:40:52;11.30;99.90
23544;DHT22;11950;51.230;4.012;2024-01-25T12:43:19;11.30;99.90
23544;DHT22;11950;51.230;4.012;2024-01-25T12:45:47;11.40;99.90
23544;DHT22;11950;51.230;4.012;2024-01-25T12:48:14;11.40;99.90
23544;DHT22;11950;51.230;4.012;2024-01-25T12:50:40;11.50;99.90
23544;DHT22;11950;51.230;4.012;2024-01-25T12:53:07;11.50;99.90
23544;DHT22;11950;51.230;4.012;2024-01-25T12:55:35;11.50;99.90
23544;DHT22;11950;51.230;4.012;2024-01-25T12:58:02;11.50;99.90
23544;DHT22;11950;51.230;4.012;2024-01-25T13:00:29;11.60;99.90
23544;DHT22;11950;51.230;4.012;2024-01-25T13:02:55;11.60;99.90
23544;DHT22;11950;51.230;4.012;2024-01-25T13:05:22;11.50;99.90
23544;DHT22;11950;51.230;4.012;2024-01-25T13:07:50;11.60;99.90
23544;DHT22;11950;51.230;4.012;2024-01-25T13:10:16;11.60;99.90
23544;DHT22;11950;51.230;4.012;2024-01-25T13:12:42;11.60;99.90
23544;DHT22;11950;51.230;4.012;2024-01-25T13:15:09;11.70;99.90
23544;DHT22;11950;51.230;4.012;2024-01-25T13:17:35;11.70;99.90
23544;DHT22;11950;51.230;4.012;2024-01-25T13:20:03;11.70;99.90
23544;DHT22;11950;51.230;4.012;2024-01-25T13:22:31;11.80;99.90
23544;DHT22;11950;51.230;4.012;2024-01-25T13:25:00;11.80;99.90
23544;DHT22;11950;51.230;4.012;2024-01-25T13:27:27;11.90;99.90
23544;DHT22;11950;51.230;4.012;2024-01-25T13:29:54;11.90;99.90
23544;DHT22;11950;51.230;4.012;2024-01-25T13:32:21;11.90;99.90
23544;DHT22;11950;51.230;4.012;2024-01-25T13:34:48;11.90;99.90
23544;DHT22;11950;51.230;4.012;2024-01-25T13:37:14;12.00;99.90
23544;DHT22;11950;51.230;4.012;2024-01-25T13:39:41;12.00;99.90
23544;DHT22;11950;51.230;4.012;2024-01-25T13:42:07;12.10;99.90
23544;DHT22;11950;51.230;4.012;2024-01-25T13:44:33;12.10;99.90
23544;DHT22;11950;51.230;4.012;2024-01-25T13:46:59;12.10;99.90
23544;DHT22;11950;51.230;4.012;2024-01-25T13:49:27;12.10;99.90
23544;DHT22;11950;51.230;4.012;2024-01-25T13:51:54;12.10;99.90
23544;DHT22;11950;51.230;4.012;2024-01-25T13:54:20;12.10;99.90
23544;DHT22;11950;51.230;4.012;2024-01-25T13:56:46;12.20;99.90
23544;DHT22;11950;51.230;4.012;2024-01-25T13:59:12;12.20;99.90
23544;DHT22;11950;51.230;4.012;2024-01-25T14:01:39;12.10;99.90
23544;DHT22;11950;51.230;4.012;2024-01-25T14:04:05;12.20;99.90
23544;DHT22;11950;51.230;4.012;2024-01-25T14:06:31;12.20;99.90
23544;DHT22;11950;51.230;4.012;2024-01-25T14:08:57;12.20;99.90
23544;DHT22;11950;51.230;4.012;2024-01-25T14:11:24;12.20;99.90
23544;DHT22;11950;51.230;4.012;2024-01-25T14:13:52;12.20;99.90
23544;DHT22;11950;51.230;4.012;2024-01-25T14:16:18;12.20;99.90
23544;DHT22;11950;51.230;4.012;2024-01-25T14:18:45;12.20;99.90
23544;DHT22;11950;51.230;4.012;2024-01-25T14:21:11;12.20;99.90
23544;DHT22;11950;51.230;4.012;2024-01-25T14:23:37;12.30;99.90
23544;DHT22;11950;51.230;4.012;2024-01-25T14:26:03;12.30;99.90
23544;DHT22;11950;51.230;4.012;2024-01-25T14:28:30;12.30;99.90
23544;DHT22;11950;51.230;4.012;2024-01-25T14:30:56;12.30;99.90
23544;DHT22;11950;51.230;4.012;2024-01-25T14:33:22;12.30;99.90
23544;DHT22;11950;51.230;4.012;2024-01-25T14:35:49;12.30;99.90
23544;DHT22;11950;51.230;4.012;2024-01-25T14:38:15;12.40;99.90
23544;DHT22;11950;51.230;4.012;2024-01-25T14:40:42;12.40;99.90
23544;DHT22;11950;51.230;4.012;2024-01-25T14:43:08;12.40;99.90
23544;DHT22;11950;51.230;4.012;2024-01-25T14:45:34;12.40;99.90
23544;DHT22;11950;51.230;4.012;2024-01-25T14:48:02;12.40;99.90
23544;DHT22;11950;51.230;4.012;2024-01-25T14:50:28;12.40;99.90
23544;DHT22;11950;51.230;4.012;2024-01-25T14:52:55;12.50;99.90
23544;DHT22;11950;51.230;4.012;2024-01-25T14:55:21;12.50;99.90
23544;DHT22;11950;51.230;4.012;2024-01-25T14:57:47;12.50;99.90
23544;DHT22;11950;51.230;4.012;2024-01-25T15:00:14;12.50;99.90
23544;DHT22;11950;51.230;4.012;2024-01-25T15:02:48;12.50;99.90
23544;DHT22;11950;51.230;4.012;2024-01-25T15:05:15;12.60;99.90
23544;DHT22;11950;51.230;4.012;2024-01-25T15:07:41;12.60;99.90
23544;DHT22;11950;51.230;4.012;2024-01-25T15:10:09;12.60;99.90
23544;DHT22;11950;51.230;4.012;2024-01-25T15:12:35;12.60;99.90
23544;DHT22;11950;51.230;4.012;2024-01-25T15:15:01;12.60;99.90
23544;DHT22;11950;51.230;4.012;2024-01-25T15:17:28;12.70;99.90
23544;DHT22;11950;51.230;4.012;2024-01-25T15:19:54;12.70;99.90
23544;DHT22;11950;51.230;4.012;2024-01-25T15:22:20;12.70;99.90
23544;DHT22;11950;51.230;4.012;2024-01-25T15:24:48;12.70;99.90
23544;DHT22;11950;51.230;4.012;2024-01-25T15:27:15;12.70;99.90
23544;DHT22;11950;51.230;4.012;2024-01-25T15:29:41;12.70;99.90
23544;DHT22;11950;51.230;4.012;2024-01-25T15:32:07;12.70;99.90
23544;DHT22;11950;51.230;4.012;2024-01-25T15:34:34;12.70;99.90
23544;DHT22;11950;51.230;4.012;2024-01-25T15:37:00;12.70;99.90
23544;DHT22;11950;51.230;4.012;2024-01-25T15:39:26;12.70;99.90
23544;DHT22;11950;51.230;4.012;2024-01-25T15:41:52;12.70;99.90